sensor_id;sensor_type;location;lat;lon;timestamp;P1;durP1;ratioP1;P2;durP2;ratioP2
55609;SDS011;41486;52.502;13.486;2022-11-04T00:01:43;7.28;;;4.40;;
55609;SDS011;41486;52.502;13.486;2022-11-04T00:04:13;8.10;;;4.85;;
55609;SDS011;41486;52.502;13.486;2022-11-04T00:06:44;7.55;;;4.07;;
55609;SDS011;41486;52.502;13.486;2022-11-04T00:09:14;5.47;;;4.10;;
55609;SDS011;41486;52.502;13.486;2022-11-04T00:11:43;8.98;;;4.93;;
55609;SDS011;41486;52.502;13.486;2022-11-04T00:14:29;7.47;;;4.63;;
55609;SDS011;41486;52.502;13.486;2022-11-04T00:16:58;8.13;;;4.32;;
55609;SDS011;41486;52.502;13.486;2022-11-04T00:19:44;6.32;;;3.88;;
55609;SDS011;41486;52.502;13.486;2022-11-04T00:22:31;7.97;;;4.28;;
55609;SDS011;41486;52.502;13.486;2022-11-04T00:25:16;6.18;;;4.05;;
55609;SDS011;41486;52.502;13.486;2022-11-04T00:28:03;10.10;;;4.38;;
55609;SDS011;41486;52.502;13.486;2022-11-04T00:30:53;8.60;;;4.20;;
55609;SDS011;41486;52.502;13.486;2022-11-04T00:33:22;8.00;;;4.18;;
55609;SDS011;41486;52.502;13.486;2022-11-04T00:35:52;10.55;;;4.40;;
55609;SDS011;41486;52.502;13.486;2022-11-04T00:38:24;9.10;;;5.53;;
55609;SDS011;41486;52.502;13.486;2022-11-04T00:40:52;6.40;;;4.55;;
55609;SDS011;41486;52.502;13.486;2022-11-04T00:43:20;6.60;;;4.30;;
55609;SDS011;41486;52.502;13.486;2022-11-04T00:45:47;7.60;;;3.85;;
55609;SDS011;41486;52.502;13.486;2022-11-04T00:48:15;9.95;;;5.00;;
55609;SDS011;41486;52.502;13.486;2022-11-04T00:50:43;6.70;;;4.32;;
55609;SDS011;41486;52.502;13.486;2022-11-04T00:53:11;7.07;;;4.13;;
55609;SDS011;41486;52.502;13.486;2022-11-04T00:55:40;6.07;;;3.60;;
55609;SDS011;41486;52.502;13.486;2022-11-04T00:58:08;7.53;;;4.57;;
55609;SDS011;41486;52.502;13.486;2022-11-04T01:00:36;7.40;;;4.95;;
55609;SDS011;41486;52.502;13.486;2022-11-04T01:03:04;9.82;;;4.60;;
55609;SDS011;41486;52.502;13.486;2022-11-04T01:05:32;7.28;;;4.40;;
55609;SDS011;41486;52.502;13.486;2022-11-04T01:08:00;6.35;;;4.07;;
55609;SDS011;41486;52.502;13.486;2022-11-04T01:10:28;7.63;;;4.75;;
55609;SDS011;41486;52.502;13.486;2022-11-04T01:12:57;8.60;;;4.22;;
55609;SDS011;41486;52.502;13.486;2022-11-04T01:15:25;9.50;;;5.05;;
55609;SDS011;41486;52.502;13.486;2022-11-04T01:17:53;7.93;;;4.43;;
55609;SDS011;41486;52.502;13.486;2022-11-04T01:20:20;9.60;;;4.40;;
55609;SDS011;41486;52.502;13.486;2022-11-04T01:22:48;10.73;;;4.68;;
55609;SDS011;41486;52.502;13.486;2022-11-04T01:25:16;7.10;;;3.83;;
55609;SDS011;41486;52.502;13.486;2022-11-04T01:27:44;8.05;;;4.00;;
55609;SDS011;41486;52.502;13.486;2022-11-04T01:30:13;9.07;;;4.60;;
55609;SDS011;41486;52.502;13.486;2022-11-04T01:32:41;8.35;;;4.25;;
55609;SDS011;41486;52.502;13.486;2022-11-04T01:35:09;9.35;;;4.32;;
55609;SDS011;41486;52.502;13.486;2022-11-04T01:37:37;7.32;;;4.50;;
55609;SDS011;41486;52.502;13.486;2022-11-04T01:40:05;9.57;;;5.00;;
55609;SDS011;41486;52.502;13.486;2022-11-04T01:42:33;7.95;;;4.70;;
55609;SDS011;41486;52.502;13.486;2022-11-04T01:45:01;7.22;;;4.07;;
55609;SDS011;41486;52.502;13.486;2022-11-04T01:47:31;8.35;;;4.70;;
55609;SDS011;41486;52.502;13.486;2022-11-04T01:50:08;8.75;;;4.75;;
55609;SDS011;41486;52.502;13.486;2022-11-04T01:52:41;6.97;;;4.65;;
55609;SDS011;41486;52.502;13.486;2022-11-04T01:55:13;6.13;;;4.40;;
55609;SDS011;41486;52.502;13.486;2022-11-04T01:57:45;8.50;;;4.47;;
55609;SDS011;41486;52.502;13.486;2022-11-04T02:00:16;7.95;;;4.82;;
55609;SDS011;41486;52.502;13.486;2022-11-04T02:02:48;7.57;;;4.60;;
55609;SDS011;41486;52.502;13.486;2022-11-04T02:05:20;7.30;;;4.72;;
55609;SDS011;41486;52.502;13.486;2022-11-04T02:07:50;6.05;;;4.60;;
55609;SDS011;41486;52.502;13.486;2022-11-04T02:10:24;8.45;;;4.32;;
55609;SDS011;41486;52.502;13.486;2022-11-04T02:12:54;6.95;;;4.50;;
55609;SDS011;41486;52.502;13.486;2022-11-04T02:15:25;9.40;;;4.93;;
55609;SDS011;41486;52.502;13.486;2022-11-04T02:21:10;7.95;;;4.45;;
55609;SDS011;41486;52.502;13.486;2022-11-04T02:24:06;8.18;;;4.55;;
55609;SDS011;41486;52.502;13.486;2022-11-04T02:35:42;8.65;;;5.07;;
55609;SDS011;41486;52.502;13.486;2022-11-04T02:38:19;7.57;;;5.35;;
55609;SDS011;41486;52.502;13.486;2022-11-04T02:40:58;7.95;;;5.07;;
55609;SDS011;41486;52.502;13.486;2022-11-04T02:43:39;10.00;;;5.20;;
55609;SDS011;41486;52.502;13.486;2022-11-04T02:46:17;7.85;;;4.47;;
55609;SDS011;41486;52.502;13.486;2022-11-04T02:48:52;11.23;;;5.65;;
55609;SDS011;41486;52.502;13.486;2022-11-04T02:51:25;9.35;;;4.88;;
55609;SDS011;41486;52.502;13.486;2022-11-04T02:53:57;8.52;;;4.95;;
55609;SDS011;41486;52.502;13.486;2022-11-04T02:56:30;9.82;;;5.32;;
55609;SDS011;41486;52.502;13.486;2022-11-04T02:59:03;10.93;;;5.65;;
55609;SDS011;41486;52.502;13.486;2022-11-04T03:01:36;8.15;;;5.13;;
55609;SDS011;41486;52.502;13.486;2022-11-04T03:04:10;7.93;;;5.32;;
55609;SDS011;41486;52.502;13.486;2022-11-04T03:06:41;8.82;;;4.90;;
55609;SDS011;41486;52.502;13.486;2022-11-04T03:09:11;9.65;;;5.60;;
55609;SDS011;41486;52.502;13.486;2022-11-04T03:11:42;10.77;;;6.13;;
55609;SDS011;41486;52.502;13.486;2022-11-04T03:14:14;9.95;;;5.97;;
55609;SDS011;41486;52.502;13.486;2022-11-04T03:16:47;10.00;;;5.10;;
55609;SDS011;41486;52.502;13.486;2022-11-04T03:19:21;8.05;;;5.15;;
55609;SDS011;41486;52.502;13.486;2022-11-04T03:21:54;11.65;;;5.80;;
55609;SDS011;41486;52.502;13.486;2022-11-04T03:24:27;9.02;;;5.70;;
55609;SDS011;41486;52.502;13.486;2022-11-04T03:26:57;10.70;;;5.75;;
55609;SDS011;41486;52.502;13.486;2022-11-04T03:29:29;8.20;;;4.50;;
55609;SDS011;41486;52.502;13.486;2022-11-04T03:32:03;9.20;;;5.03;;
55609;SDS011;41486;52.502;13.486;2022-11-04T03:34:37;8.70;;;6.03;;
55609;SDS011;41486;52.502;13.486;2022-11-04T03:37:05;9.68;;;5.57;;
55609;SDS011;41486;52.502;13.486;2022-11-04T03:39:33;11.80;;;5.22;;
55609;SDS011;41486;52.502;13.486;2022-11-04T03:42:01;9.70;;;5.57;;
55609;SDS011;41486;52.502;13.486;2022-11-04T03:44:45;11.57;;;5.38;;
55609;SDS011;41486;52.502;13.486;2022-11-04T03:47:17;8.75;;;5.45;;
55609;SDS011;41486;52.502;13.486;2022-11-04T03:49:47;11.60;;;5.47;;
55609;SDS011;41486;52.502;13.486;2022-11-04T03:52:16;8.82;;;5.40;;
55609;SDS011;41486;52.502;13.486;2022-11-04T03:54:45;9.52;;;5.40;;
55609;SDS011;41486;52.502;13.486;2022-11-04T03:57:16;8.35;;;5.22;;
55609;SDS011;41486;52.502;13.486;2022-11-04T04:00:05;7.88;;;5.20;;
55609;SDS011;41486;52.502;13.486;2022-11-04T04:05:34;7.90;;;4.95;;
55609;SDS011;41486;52.502;13.486;2022-11-04T04:08:17;8.77;;;5.25;;
55609;SDS011;41486;52.502;13.486;2022-11-04T04:10:55;10.63;;;5.78;;
55609;SDS011;41486;52.502;13.486;2022-11-04T04:13:30;8.15;;;5.50;;
55609;SDS011;41486;52.502;13.486;2022-11-04T04:16:06;7.15;;;4.85;;
55609;SDS011;41486;52.502;13.486;2022-11-04T04:18:39;11.48;;;5.50;;
55609;SDS011;41486;52.502;13.486;2022-11-04T04:21:13;8.05;;;5.00;;
55609;SDS011;41486;52.502;13.486;2022-11-04T04:23:45;9.65;;;5.75;;
55609;SDS011;41486;52.502;13.486;2022-11-04T04:26:39;8.70;;;5.18;;
55609;SDS011;41486;52.502;13.486;2022-11-04T04:29:30;9.98;;;5.47;;
55609;SDS011;41486;52.502;13.486;2022-11-04T04:31:59;12.40;;;5.25;;
55609;SDS011;41486;52.502;13.486;2022-11-04T04:34:30;10.93;;;5.88;;
55609;SDS011;41486;52.502;13.486;2022-11-04T04:37:00;9.00;;;5.68;;
55609;SDS011;41486;52.502;13.486;2022-11-04T04:39:31;11.63;;;5.30;;
55609;SDS011;41486;52.502;13.486;2022-11-04T04:42:20;13.18;;;5.22;;
55609;SDS011;41486;52.502;13.486;2022-11-04T04:45:06;9.90;;;5.50;;
55609;SDS011;41486;52.502;13.486;2022-11-04T04:47:37;11.30;;;5.53;;
55609;SDS011;41486;52.502;13.486;2022-11-04T04:50:10;11.97;;;6.13;;
55609;SDS011;41486;52.502;13.486;2022-11-04T04:52:40;10.38;;;5.70;;
55609;SDS011;41486;52.502;13.486;2022-11-04T04:55:12;8.85;;;6.13;;
55609;SDS011;41486;52.502;13.486;2022-11-04T04:57:40;9.35;;;5.95;;
55609;SDS011;41486;52.502;13.486;2022-11-04T05:00:10;8.77;;;6.03;;
55609;SDS011;41486;52.502;13.486;2022-11-04T05:02:39;11.63;;;5.35;;
55609;SDS011;41486;52.502;13.486;2022-11-04T05:05:08;9.43;;;5.25;;
55609;SDS011;41486;52.502;13.486;2022-11-04T05:07:38;9.40;;;5.82;;
55609;SDS011;41486;52.502;13.486;2022-11-04T05:10:06;10.35;;;5.80;;
55609;SDS011;41486;52.502;13.486;2022-11-04T05:12:36;10.18;;;5.30;;
55609;SDS011;41486;52.502;13.486;2022-11-04T05:15:21;8.98;;;5.50;;
55609;SDS011;41486;52.502;13.486;2022-11-04T05:17:52;8.80;;;5.85;;
55609;SDS011;41486;52.502;13.486;2022-11-04T05:20:20;11.27;;;6.00;;
55609;SDS011;41486;52.502;13.486;2022-11-04T05:22:50;14.15;;;5.95;;
55609;SDS011;41486;52.502;13.486;2022-11-04T05:25:18;8.60;;;5.70;;
55609;SDS011;41486;52.502;13.486;2022-11-04T05:27:46;9.45;;;5.05;;
55609;SDS011;41486;52.502;13.486;2022-11-04T05:30:13;10.18;;;5.47;;
55609;SDS011;41486;52.502;13.486;2022-11-04T05:32:41;9.75;;;5.70;;
55609;SDS011;41486;52.502;13.486;2022-11-04T05:35:09;9.48;;;5.97;;
55609;SDS011;41486;52.502;13.486;2022-11-04T05:37:37;13.15;;;5.35;;
55609;SDS011;41486;52.502;13.486;2022-11-04T05:40:07;8.35;;;5.80;;
55609;SDS011;41486;52.502;13.486;2022-11-04T05:42:35;28.92;;;7.30;;
55609;SDS011;41486;52.502;13.486;2022-11-04T05:45:03;13.82;;;5.95;;
55609;SDS011;41486;52.502;13.486;2022-11-04T05:47:32;10.93;;;6.18;;
55609;SDS011;41486;52.502;13.486;2022-11-04T05:49:59;9.98;;;5.55;;
55609;SDS011;41486;52.502;13.486;2022-11-04T05:52:27;8.18;;;5.65;;
55609;SDS011;41486;52.502;13.486;2022-11-04T05:54:55;6.95;;;5.32;;
55609;SDS011;41486;52.502;13.486;2022-11-04T05:57:24;15.80;;;6.43;;
55609;SDS011;41486;52.502;13.486;2022-11-04T05:59:52;7.93;;;4.97;;
55609;SDS011;41486;52.502;13.486;2022-11-04T06:02:20;10.02;;;6.28;;
55609;SDS011;41486;52.502;13.486;2022-11-04T06:04:48;10.95;;;7.00;;
55609;SDS011;41486;52.502;13.486;2022-11-04T06:07:16;7.88;;;6.35;;
55609;SDS011;41486;52.502;13.486;2022-11-04T06:09:44;13.57;;;6.15;;
55609;SDS011;41486;52.502;13.486;2022-11-04T06:12:12;12.07;;;6.43;;
55609;SDS011;41486;52.502;13.486;2022-11-04T06:14:43;9.23;;;5.97;;
55609;SDS011;41486;52.502;13.486;2022-11-04T06:17:12;12.93;;;6.35;;
55609;SDS011;41486;52.502;13.486;2022-11-04T06:19:41;10.18;;;5.85;;
55609;SDS011;41486;52.502;13.486;2022-11-04T06:22:09;12.00;;;5.85;;
55609;SDS011;41486;52.502;13.486;2022-11-04T06:24:38;9.15;;;5.70;;
55609;SDS011;41486;52.502;13.486;2022-11-04T06:27:07;8.75;;;5.28;;
55609;SDS011;41486;52.502;13.486;2022-11-04T06:29:35;9.88;;;6.28;;
55609;SDS011;41486;52.502;13.486;2022-11-04T06:32:06;7.30;;;5.35;;
55609;SDS011;41486;52.502;13.486;2022-11-04T06:34:35;8.98;;;4.90;;
55609;SDS011;41486;52.502;13.486;2022-11-04T06:37:02;11.07;;;5.88;;
55609;SDS011;41486;52.502;13.486;2022-11-04T06:39:31;12.68;;;6.20;;
55609;SDS011;41486;52.502;13.486;2022-11-04T06:41:58;9.98;;;5.65;;
55609;SDS011;41486;52.502;13.486;2022-11-04T06:44:28;17.33;;;6.38;;
55609;SDS011;41486;52.502;13.486;2022-11-04T06:46:56;12.75;;;5.68;;
55609;SDS011;41486;52.502;13.486;2022-11-04T06:49:25;9.93;;;6.03;;
55609;SDS011;41486;52.502;13.486;2022-11-04T06:51:53;9.48;;;5.95;;
55609;SDS011;41486;52.502;13.486;2022-11-04T06:54:21;8.82;;;6.28;;
55609;SDS011;41486;52.502;13.486;2022-11-04T06:56:49;8.90;;;5.85;;
55609;SDS011;41486;52.502;13.486;2022-11-04T06:59:18;10.85;;;5.70;;
55609;SDS011;41486;52.502;13.486;2022-11-04T07:01:48;11.23;;;6.22;;
55609;SDS011;41486;52.502;13.486;2022-11-04T07:04:17;13.52;;;6.57;;
55609;SDS011;41486;52.502;13.486;2022-11-04T07:06:47;13.52;;;6.13;;
55609;SDS011;41486;52.502;13.486;2022-11-04T07:09:14;13.75;;;8.85;;
55609;SDS011;41486;52.502;13.486;2022-11-04T07:11:43;12.65;;;7.22;;
55609;SDS011;41486;52.502;13.486;2022-11-04T07:14:11;12.25;;;6.65;;
55609;SDS011;41486;52.502;13.486;2022-11-04T07:16:39;10.88;;;6.90;;
55609;SDS011;41486;52.502;13.486;2022-11-04T07:19:07;9.98;;;6.90;;
55609;SDS011;41486;52.502;13.486;2022-11-04T07:21:35;9.07;;;6.32;;
55609;SDS011;41486;52.502;13.486;2022-11-04T07:24:05;13.30;;;7.18;;
55609;SDS011;41486;52.502;13.486;2022-11-04T07:26:33;10.15;;;6.15;;
55609;SDS011;41486;52.502;13.486;2022-11-04T07:29:01;10.88;;;6.18;;
55609;SDS011;41486;52.502;13.486;2022-11-04T07:31:31;12.40;;;5.85;;
55609;SDS011;41486;52.502;13.486;2022-11-04T07:33:59;9.80;;;6.05;;
55609;SDS011;41486;52.502;13.486;2022-11-04T07:36:28;9.10;;;6.07;;
55609;SDS011;41486;52.502;13.486;2022-11-04T07:38:56;9.73;;;5.97;;
55609;SDS011;41486;52.502;13.486;2022-11-04T07:41:25;12.13;;;6.43;;
55609;SDS011;41486;52.502;13.486;2022-11-04T07:43:53;8.25;;;6.22;;
55609;SDS011;41486;52.502;13.486;2022-11-04T07:46:21;10.32;;;7.18;;
55609;SDS011;41486;52.502;13.486;2022-11-04T07:48:49;10.30;;;6.50;;
55609;SDS011;41486;52.502;13.486;2022-11-04T07:51:17;11.45;;;5.80;;
55609;SDS011;41486;52.502;13.486;2022-11-04T07:53:46;10.35;;;6.38;;
55609;SDS011;41486;52.502;13.486;2022-11-04T07:56:15;11.65;;;6.40;;
55609;SDS011;41486;52.502;13.486;2022-11-04T07:58:45;8.82;;;6.50;;
55609;SDS011;41486;52.502;13.486;2022-11-04T08:01:14;12.60;;;6.95;;
55609;SDS011;41486;52.502;13.486;2022-11-04T08:03:44;9.00;;;6.47;;
55609;SDS011;41486;52.502;13.486;2022-11-04T08:06:12;11.32;;;6.03;;
55609;SDS011;41486;52.502;13.486;2022-11-04T08:08:44;11.30;;;6.47;;
55609;SDS011;41486;52.502;13.486;2022-11-04T08:11:14;9.65;;;6.45;;
55609;SDS011;41486;52.502;13.486;2022-11-04T08:13:44;9.82;;;6.65;;
55609;SDS011;41486;52.502;13.486;2022-11-04T08:16:14;11.13;;;7.85;;
55609;SDS011;41486;52.502;13.486;2022-11-04T08:18:44;10.55;;;6.80;;
55609;SDS011;41486;52.502;13.486;2022-11-04T08:21:12;11.88;;;6.68;;
55609;SDS011;41486;52.502;13.486;2022-11-04T08:23:41;12.48;;;7.32;;
55609;SDS011;41486;52.502;13.486;2022-11-04T08:26:13;10.27;;;7.03;;
55609;SDS011;41486;52.502;13.486;2022-11-04T08:28:43;10.30;;;6.65;;
55609;SDS011;41486;52.502;13.486;2022-11-04T08:31:14;12.73;;;6.32;;
55609;SDS011;41486;52.502;13.486;2022-11-04T08:33:43;9.02;;;6.25;;
55609;SDS011;41486;52.502;13.486;2022-11-04T08:36:13;14.23;;;7.38;;
55609;SDS011;41486;52.502;13.486;2022-11-04T08:38:42;11.00;;;6.18;;
55609;SDS011;41486;52.502;13.486;2022-11-04T08:41:11;8.43;;;5.72;;
55609;SDS011;41486;52.502;13.486;2022-11-04T08:43:39;11.50;;;6.38;;
55609;SDS011;41486;52.502;13.486;2022-11-04T08:46:08;9.85;;;6.72;;
55609;SDS011;41486;52.502;13.486;2022-11-04T08:48:38;12.77;;;7.55;;
55609;SDS011;41486;52.502;13.486;2022-11-04T08:51:10;11.38;;;6.60;;
55609;SDS011;41486;52.502;13.486;2022-11-04T08:53:40;12.30;;;7.78;;
55609;SDS011;41486;52.502;13.486;2022-11-04T08:56:09;11.70;;;6.30;;
55609;SDS011;41486;52.502;13.486;2022-11-04T08:58:38;9.00;;;6.45;;
55609;SDS011;41486;52.502;13.486;2022-11-04T09:01:06;11.25;;;5.75;;
55609;SDS011;41486;52.502;13.486;2022-11-04T09:03:35;11.52;;;6.40;;
55609;SDS011;41486;52.502;13.486;2022-11-04T09:06:05;9.20;;;5.53;;
55609;SDS011;41486;52.502;13.486;2022-11-04T09:08:35;8.45;;;5.25;;
55609;SDS011;41486;52.502;13.486;2022-11-04T09:11:05;10.82;;;5.43;;
55609;SDS011;41486;52.502;13.486;2022-11-04T09:13:33;6.70;;;4.78;;
55609;SDS011;41486;52.502;13.486;2022-11-04T09:16:05;8.15;;;5.22;;
55609;SDS011;41486;52.502;13.486;2022-11-04T09:18:35;6.80;;;4.43;;
55609;SDS011;41486;52.502;13.486;2022-11-04T09:21:04;7.88;;;4.75;;
55609;SDS011;41486;52.502;13.486;2022-11-04T09:23:35;7.30;;;4.22;;
55609;SDS011;41486;52.502;13.486;2022-11-04T09:26:04;7.88;;;4.47;;
55609;SDS011;41486;52.502;13.486;2022-11-04T09:28:34;6.28;;;4.15;;
55609;SDS011;41486;52.502;13.486;2022-11-04T09:31:06;7.63;;;4.70;;
55609;SDS011;41486;52.502;13.486;2022-11-04T09:33:35;8.70;;;5.07;;
55609;SDS011;41486;52.502;13.486;2022-11-04T09:36:04;6.18;;;4.22;;
55609;SDS011;41486;52.502;13.486;2022-11-04T09:38:36;6.47;;;4.20;;
55609;SDS011;41486;52.502;13.486;2022-11-04T09:41:10;4.88;;;3.92;;
55609;SDS011;41486;52.502;13.486;2022-11-04T09:43:49;9.13;;;4.27;;
55609;SDS011;41486;52.502;13.486;2022-11-04T09:46:24;7.03;;;4.13;;
55609;SDS011;41486;52.502;13.486;2022-11-04T09:48:54;6.70;;;3.83;;
55609;SDS011;41486;52.502;13.486;2022-11-04T09:51:24;6.82;;;4.07;;
55609;SDS011;41486;52.502;13.486;2022-11-04T09:54:17;5.43;;;4.05;;
55609;SDS011;41486;52.502;13.486;2022-11-04T09:56:49;6.00;;;3.60;;
55609;SDS011;41486;52.502;13.486;2022-11-04T09:59:19;5.45;;;3.88;;
55609;SDS011;41486;52.502;13.486;2022-11-04T10:04:59;4.47;;;3.13;;
55609;SDS011;41486;52.502;13.486;2022-11-04T10:07:39;4.57;;;3.17;;
55609;SDS011;41486;52.502;13.486;2022-11-04T10:10:18;4.82;;;3.47;;
55609;SDS011;41486;52.502;13.486;2022-11-04T10:13:13;6.22;;;4.13;;
55609;SDS011;41486;52.502;13.486;2022-11-04T10:15:53;8.38;;;4.10;;
55609;SDS011;41486;52.502;13.486;2022-11-04T10:18:46;7.10;;;4.15;;
55609;SDS011;41486;52.502;13.486;2022-11-04T10:21:31;4.68;;;4.00;;
55609;SDS011;41486;52.502;13.486;2022-11-04T10:24:11;5.95;;;3.95;;
55609;SDS011;41486;52.502;13.486;2022-11-04T10:26:48;4.55;;;3.33;;
55609;SDS011;41486;52.502;13.486;2022-11-04T10:29:27;6.03;;;3.65;;
55609;SDS011;41486;52.502;13.486;2022-11-04T10:32:05;6.72;;;3.83;;
55609;SDS011;41486;52.502;13.486;2022-11-04T10:34:48;6.85;;;4.65;;
55609;SDS011;41486;52.502;13.486;2022-11-04T10:37:23;6.32;;;4.00;;
55609;SDS011;41486;52.502;13.486;2022-11-04T10:39:54;4.47;;;3.30;;
55609;SDS011;41486;52.502;13.486;2022-11-04T10:44:55;6.38;;;4.43;;
55609;SDS011;41486;52.502;13.486;2022-11-04T10:47:29;6.07;;;3.45;;
55609;SDS011;41486;52.502;13.486;2022-11-04T10:50:07;7.43;;;4.43;;
55609;SDS011;41486;52.502;13.486;2022-11-04T10:53:00;5.72;;;3.83;;
55609;SDS011;41486;52.502;13.486;2022-11-04T10:55:39;6.70;;;4.40;;
55609;SDS011;41486;52.502;13.486;2022-11-04T10:58:17;6.20;;;4.78;;
55609;SDS011;41486;52.502;13.486;2022-11-04T11:00:49;7.47;;;4.55;;
55609;SDS011;41486;52.502;13.486;2022-11-04T11:03:22;6.78;;;4.53;;
55609;SDS011;41486;52.502;13.486;2022-11-04T11:06:10;7.85;;;4.80;;
55609;SDS011;41486;52.502;13.486;2022-11-04T11:08:41;4.80;;;4.30;;
55609;SDS011;41486;52.502;13.486;2022-11-04T11:11:11;6.55;;;4.65;;
55609;SDS011;41486;52.502;13.486;2022-11-04T11:13:42;9.07;;;4.53;;
55609;SDS011;41486;52.502;13.486;2022-11-04T11:16:12;7.43;;;4.65;;
55609;SDS011;41486;52.502;13.486;2022-11-04T11:18:45;5.85;;;4.68;;
55609;SDS011;41486;52.502;13.486;2022-11-04T11:21:44;5.07;;;4.05;;
55609;SDS011;41486;52.502;13.486;2022-11-04T11:24:16;9.88;;;4.88;;
55609;SDS011;41486;52.502;13.486;2022-11-04T11:26:48;7.88;;;4.75;;
55609;SDS011;41486;52.502;13.486;2022-11-04T11:29:20;6.82;;;5.30;;
55609;SDS011;41486;52.502;13.486;2022-11-04T11:31:50;7.50;;;4.78;;
55609;SDS011;41486;52.502;13.486;2022-11-04T11:34:21;5.88;;;4.45;;
55609;SDS011;41486;52.502;13.486;2022-11-04T11:36:53;11.02;;;5.07;;
55609;SDS011;41486;52.502;13.486;2022-11-04T11:39:23;10.80;;;5.43;;
55609;SDS011;41486;52.502;13.486;2022-11-04T11:41:57;7.82;;;4.97;;
55609;SDS011;41486;52.502;13.486;2022-11-04T11:44:29;8.32;;;6.03;;
55609;SDS011;41486;52.502;13.486;2022-11-04T11:47:03;6.90;;;5.32;;
55609;SDS011;41486;52.502;13.486;2022-11-04T11:49:33;6.80;;;5.35;;
55609;SDS011;41486;52.502;13.486;2022-11-04T11:52:15;7.32;;;5.53;;
55609;SDS011;41486;52.502;13.486;2022-11-04T11:54:53;8.40;;;5.80;;
55609;SDS011;41486;52.502;13.486;2022-11-04T11:57:30;8.52;;;6.00;;
55609;SDS011;41486;52.502;13.486;2022-11-04T12:00:12;8.85;;;5.95;;
55609;SDS011;41486;52.502;13.486;2022-11-04T12:03:04;7.93;;;5.75;;
55609;SDS011;41486;52.502;13.486;2022-11-04T12:05:44;8.45;;;5.43;;
55609;SDS011;41486;52.502;13.486;2022-11-04T12:08:47;6.25;;;4.72;;
55609;SDS011;41486;52.502;13.486;2022-11-04T12:11:57;6.50;;;5.05;;
55609;SDS011;41486;52.502;13.486;2022-11-04T12:14:37;8.90;;;5.55;;
55609;SDS011;41486;52.502;13.486;2022-11-04T12:17:21;10.48;;;7.35;;
55609;SDS011;41486;52.502;13.486;2022-11-04T12:20:02;7.28;;;5.60;;
55609;SDS011;41486;52.502;13.486;2022-11-04T12:22:42;7.70;;;5.95;;
55609;SDS011;41486;52.502;13.486;2022-11-04T12:25:21;7.18;;;5.97;;
55609;SDS011;41486;52.502;13.486;2022-11-04T12:27:54;9.20;;;6.40;;
55609;SDS011;41486;52.502;13.486;2022-11-04T12:30:31;8.70;;;6.55;;
55609;SDS011;41486;52.502;13.486;2022-11-04T12:33:09;8.20;;;5.43;;
55609;SDS011;41486;52.502;13.486;2022-11-04T12:35:52;9.30;;;6.22;;
55609;SDS011;41486;52.502;13.486;2022-11-04T12:38:33;7.30;;;5.55;;
55609;SDS011;41486;52.502;13.486;2022-11-04T12:41:14;7.65;;;5.47;;
55609;SDS011;41486;52.502;13.486;2022-11-04T12:44:12;9.15;;;5.95;;
55609;SDS011;41486;52.502;13.486;2022-11-04T12:46:52;6.15;;;5.10;;
55609;SDS011;41486;52.502;13.486;2022-11-04T12:52:26;6.32;;;4.88;;
55609;SDS011;41486;52.502;13.486;2022-11-04T12:55:13;6.10;;;4.28;;
55609;SDS011;41486;52.502;13.486;2022-11-04T12:57:52;6.90;;;5.13;;
55609;SDS011;41486;52.502;13.486;2022-11-04T13:00:28;5.95;;;4.45;;
55609;SDS011;41486;52.502;13.486;2022-11-04T13:03:02;6.60;;;4.60;;
55609;SDS011;41486;52.502;13.486;2022-11-04T13:05:38;5.72;;;4.85;;
55609;SDS011;41486;52.502;13.486;2022-11-04T13:08:14;7.88;;;4.38;;
55609;SDS011;41486;52.502;13.486;2022-11-04T13:10:48;11.13;;;4.80;;
55609;SDS011;41486;52.502;13.486;2022-11-04T13:13:21;5.68;;;4.30;;
55609;SDS011;41486;52.502;13.486;2022-11-04T13:15:54;8.80;;;5.50;;
55609;SDS011;41486;52.502;13.486;2022-11-04T13:18:25;8.48;;;5.28;;
55609;SDS011;41486;52.502;13.486;2022-11-04T13:20:59;6.63;;;4.97;;
55609;SDS011;41486;52.502;13.486;2022-11-04T13:23:33;7.53;;;4.90;;
55609;SDS011;41486;52.502;13.486;2022-11-04T13:26:08;7.93;;;4.82;;
55609;SDS011;41486;52.502;13.486;2022-11-04T13:28:39;5.70;;;4.47;;
55609;SDS011;41486;52.502;13.486;2022-11-04T13:31:09;7.18;;;4.53;;
55609;SDS011;41486;52.502;13.486;2022-11-04T13:33:42;6.57;;;4.50;;
55609;SDS011;41486;52.502;13.486;2022-11-04T13:36:23;5.93;;;4.47;;
55609;SDS011;41486;52.502;13.486;2022-11-04T13:39:01;6.05;;;4.53;;
55609;SDS011;41486;52.502;13.486;2022-11-04T13:41:38;5.72;;;4.72;;
55609;SDS011;41486;52.502;13.486;2022-11-04T13:44:27;7.93;;;4.72;;
55609;SDS011;41486;52.502;13.486;2022-11-04T13:46:58;6.53;;;4.53;;
55609;SDS011;41486;52.502;13.486;2022-11-04T13:49:31;5.70;;;4.10;;
55609;SDS011;41486;52.502;13.486;2022-11-04T13:52:05;6.57;;;4.50;;
55609;SDS011;41486;52.502;13.486;2022-11-04T13:54:36;5.72;;;4.55;;
55609;SDS011;41486;52.502;13.486;2022-11-04T13:57:08;7.00;;;4.82;;
55609;SDS011;41486;52.502;13.486;2022-11-04T13:59:39;6.82;;;4.97;;
55609;SDS011;41486;52.502;13.486;2022-11-04T14:02:22;5.65;;;4.63;;
55609;SDS011;41486;52.502;13.486;2022-11-04T14:08:26;7.07;;;5.20;;
55609;SDS011;41486;52.502;13.486;2022-11-04T14:11:10;10.98;;;7.07;;
55609;SDS011;41486;52.502;13.486;2022-11-04T14:13:43;7.70;;;5.10;;
55609;SDS011;41486;52.502;13.486;2022-11-04T14:16:38;7.13;;;4.82;;
55609;SDS011;41486;52.502;13.486;2022-11-04T14:22:24;6.93;;;5.15;;
55609;SDS011;41486;52.502;13.486;2022-11-04T14:24:59;6.30;;;4.70;;
55609;SDS011;41486;52.502;13.486;2022-11-04T14:27:30;8.45;;;5.43;;
55609;SDS011;41486;52.502;13.486;2022-11-04T14:30:05;9.77;;;5.82;;
55609;SDS011;41486;52.502;13.486;2022-11-04T14:32:54;8.07;;;6.03;;
55609;SDS011;41486;52.502;13.486;2022-11-04T14:35:25;6.57;;;5.25;;
55609;SDS011;41486;52.502;13.486;2022-11-04T14:37:55;7.90;;;5.68;;
55609;SDS011;41486;52.502;13.486;2022-11-04T14:40:47;7.97;;;5.10;;
55609;SDS011;41486;52.502;13.486;2022-11-04T14:43:20;9.25;;;5.88;;
55609;SDS011;41486;52.502;13.486;2022-11-04T14:45:57;6.78;;;4.80;;
55609;SDS011;41486;52.502;13.486;2022-11-04T14:48:27;5.50;;;4.57;;
55609;SDS011;41486;52.502;13.486;2022-11-04T14:50:56;9.80;;;5.53;;
55609;SDS011;41486;52.502;13.486;2022-11-04T14:53:27;7.47;;;5.10;;
55609;SDS011;41486;52.502;13.486;2022-11-04T14:56:03;7.10;;;4.90;;
55609;SDS011;41486;52.502;13.486;2022-11-04T14:58:32;6.43;;;5.47;;
55609;SDS011;41486;52.502;13.486;2022-11-04T15:01:00;8.48;;;5.13;;
55609;SDS011;41486;52.502;13.486;2022-11-04T15:03:32;7.70;;;5.30;;
55609;SDS011;41486;52.502;13.486;2022-11-04T15:06:22;6.47;;;4.95;;
55609;SDS011;41486;52.502;13.486;2022-11-04T15:09:17;6.50;;;5.68;;
55609;SDS011;41486;52.502;13.486;2022-11-04T15:11:48;6.25;;;4.70;;
55609;SDS011;41486;52.502;13.486;2022-11-04T15:14:35;5.80;;;5.00;;
55609;SDS011;41486;52.502;13.486;2022-11-04T15:17:03;6.90;;;4.95;;
55609;SDS011;41486;52.502;13.486;2022-11-04T15:19:32;8.45;;;5.22;;
55609;SDS011;41486;52.502;13.486;2022-11-04T15:22:02;7.95;;;5.35;;
55609;SDS011;41486;52.502;13.486;2022-11-04T15:24:33;6.90;;;4.70;;
55609;SDS011;41486;52.502;13.486;2022-11-04T15:27:03;6.93;;;5.50;;
55609;SDS011;41486;52.502;13.486;2022-11-04T15:29:32;6.82;;;5.15;;
55609;SDS011;41486;52.502;13.486;2022-11-04T15:32:01;6.35;;;4.88;;
55609;SDS011;41486;52.502;13.486;2022-11-04T15:34:31;5.88;;;4.63;;
55609;SDS011;41486;52.502;13.486;2022-11-04T15:37:00;7.18;;;5.07;;